Etusivu
METAR-TAF:

METAR-TAF

Lentoasemat :

Berbérati, Keski-Afrikan tasavalta

Leveyspiiri: 04-15N, Pituuspiiri: 015-48E, korkeus merenpinnasta: 582 m

Tämänhetkinen sää

Tämä raportti tehtiin 28 minuuttia sitten, kello 10.00 UTC
Tuuli 12 kn luoteesta
Lämpötila 29°C
Kosteus 70%
Ilmanpaine 1015 hPa
Näkyvyys 10 km tai enemmän
Hajanaisia pilviä 2000 ft:n korkeudessa

METAR: FEFT 291000Z 32012KT 9999 SCT020 29/23 Q1015

Aika: 11:28 (10:28 UTC)


TAF: puuttuu

Säähavainnot ja -ennusteet yli 4000 lentoasemalta (METAR- ja TAF-raportit).

Käytössä olevat sääasemat on merkitty karttaan keltaisilla ja punaisilla pisteillä.

Aseta hiiri pisteen päälle nähdäksesi sääaseman nimen.

Klikkaa sitten nähdäksesi säähavainnot ja -ennusteet.

Kartan vaihtaminen: klikkaa mustalla rastilla varustettuja vihreitä pisteitä, niin voit zoomata sisään; viivalla varustettua vihreää pistettä, niin voit zoomata ulos tai vihreitä nuolia, niin pääset viereisille kartoille.


METAR-TAF: